Time;durP1;ratioP1;P1;durP2;ratioP2;P2;SDS_P1;SDS_P2;PMS_P1;PMS_P2;Temp;Humidity;BMP_temperature;BMP_pressure;BME280_temperature;BME280_humidity;BME280_pressure;Samples;Min_cycle;Max_cycle;Signal;HPM_P1;HPM_P2
2021/09/10 00:00:45;;;;;;;1.53;0.90;;;21.00;98.20;;;;;;4970401;28;20841;-77
2021/09/10 00:03:12;;;;;;;1.53;0.93;;;21.00;98.20;;;;;;4977838;28;20482;-77
2021/09/10 00:05:39;;;;;;;1.50;0.90;;;21.00;98.20;;;;;;4972976;28;20466;-78
2021/09/10 00:08:05;;;;;;;1.50;0.93;;;20.90;98.20;;;;;;4977457;28;20484;-77
2021/09/10 00:10:33;;;;;;;1.50;1.00;;;20.90;98.20;;;;;;4973896;28;20693;-77
2021/09/10 00:13:02;;;;;;;1.50;0.90;;;20.90;98.20;;;;;;4973999;28;20494;-77
2021/09/10 00:15:28;;;;;;;1.50;0.90;;;20.90;98.20;;;;;;4966815;28;20894;-78
2021/09/10 00:17:56;;;;;;;1.77;1.30;;;20.90;98.20;;;;;;4955952;28;20477;-76
2021/09/10 00:20:23;;;;;;;1.50;0.90;;;20.90;98.20;;;;;;4968988;28;20489;-78
2021/09/10 00:22:49;;;;;;;1.50;0.90;;;20.90;98.20;;;;;;4977206;28;20477;-77
2021/09/10 00:25:16;;;;;;;1.50;0.90;;;20.90;98.20;;;;;;4968907;28;20455;-76
2021/09/10 00:27:43;;;;;;;1.50;0.90;;;20.90;98.20;;;;;;4954898;28;20538;-76
2021/09/10 00:30:12;;;;;;;1.70;1.30;;;20.90;98.20;;;;;;4969330;28;20493;-77
2021/09/10 00:32:39;;;;;;;1.53;0.90;;;20.90;98.20;;;;;;4972581;28;21766;-77
2021/09/10 00:35:07;;;;;;;1.50;0.90;;;20.90;98.20;;;;;;4971327;28;20462;-76
2021/09/10 00:37:34;;;;;;;1.50;0.93;;;20.80;98.20;;;;;;4974317;28;21042;-77
2021/09/10 00:40:00;;;;;;;1.57;1.00;;;20.80;98.20;;;;;;4973447;28;20489;-78
2021/09/10 00:42:27;;;;;;;1.50;0.90;;;20.80;98.20;;;;;;4974688;28;20485;-77
2021/09/10 00:44:54;;;;;;;1.50;0.90;;;20.80;98.20;;;;;;4974706;28;20466;-77
2021/09/10 00:47:23;;;;;;;1.50;0.90;;;20.80;98.20;;;;;;4960042;28;20485;-77
2021/09/10 00:49:50;;;;;;;1.53;0.90;;;20.80;98.20;;;;;;4971578;28;20520;-77
2021/09/10 00:52:18;;;;;;;1.50;0.90;;;20.80;98.20;;;;;;4971477;28;20488;-77
2021/09/10 00:54:45;;;;;;;1.50;0.90;;;20.80;98.20;;;;;;4974488;28;20488;-77
2021/09/10 00:57:12;;;;;;;1.50;1.00;;;20.80;98.20;;;;;;4969467;28;20485;-77
2021/09/10 00:59:38;;;;;;;1.50;0.90;;;20.80;98.20;;;;;;4975735;28;20481;-77
2021/09/10 01:02:05;;;;;;;1.50;0.90;;;20.80;98.20;;;;;;4970382;28;20512;-76
2021/09/10 01:04:34;;;;;;;1.50;0.90;;;20.80;98.20;;;;;;4973401;28;20485;-77
2021/09/10 01:07:01;;;;;;;1.50;0.90;;;20.80;98.20;;;;;;4965535;28;20493;-77
2021/09/10 01:09:28;;;;;;;1.60;1.10;;;20.80;98.20;;;;;;4972977;28;20496;-78
2021/09/10 01:11:55;;;;;;;1.50;0.90;;;20.80;98.20;;;;;;4961181;28;20494;-77
2021/09/10 01:14:23;;;;;;;1.50;0.90;;;20.80;98.20;;;;;;4966738;28;20803;-77
2021/09/10 01:16:50;;;;;;;1.50;0.90;;;20.70;98.20;;;;;;4967164;28;21045;-77
2021/09/10 01:19:24;;;;;;;1.50;0.90;;;20.70;98.20;;;;;;4976472;28;20486;-77
2021/09/10 01:21:55;;;;;;;1.50;0.90;;;20.70;98.20;;;;;;4967857;28;20480;-77
2021/09/10 01:24:29;;;;;;;3.00;1.97;;;20.70;98.20;;;;;;4976769;28;20474;-77
2021/09/10 01:26:56;;;;;;;1.50;0.90;;;20.70;98.20;;;;;;4972399;28;20496;-77
2021/09/10 01:29:22;;;;;;;1.50;0.90;;;20.70;98.20;;;;;;4976201;28;20486;-77
2021/09/10 01:31:49;;;;;;;1.50;0.90;;;20.60;98.20;;;;;;4965173;28;20504;-77
2021/09/10 01:34:16;;;;;;;1.50;0.90;;;20.60;98.20;;;;;;4973015;28;20956;-77
2021/09/10 01:36:43;;;;;;;1.50;0.90;;;20.60;98.20;;;;;;4968854;28;20486;-78
2021/09/10 01:39:09;;;;;;;1.53;1.00;;;20.60;98.20;;;;;;4978901;28;20494;-77
2021/09/10 01:41:38;;;;;;;1.50;0.90;;;20.60;98.20;;;;;;4967391;28;20496;-77
2021/09/10 01:44:05;;;;;;;1.50;0.90;;;20.60;98.20;;;;;;4976334;28;20467;-77
2021/09/10 01:46:31;;;;;;;1.50;0.90;;;20.60;98.20;;;;;;4967081;28;20568;-77
2021/09/10 01:48:58;;;;;;;1.50;0.90;;;20.60;98.20;;;;;;4976615;28;20497;-78
2021/09/10 01:51:31;;;;;;;1.50;0.90;;;20.60;98.20;;;;;;4967866;28;21062;-77
2021/09/10 01:53:59;;;;;;;1.50;0.90;;;20.60;98.20;;;;;;4959339;28;20466;-78
2021/09/10 01:56:27;;;;;;;1.50;0.90;;;20.50;98.20;;;;;;4967610;28;21022;-77
2021/09/10 01:58:55;;;;;;;1.50;0.90;;;20.50;98.20;;;;;;4979723;28;20858;-79
2021/09/10 02:01:23;;;;;;;1.50;0.97;;;20.50;98.20;;;;;;4966028;28;20481;-79
2021/09/10 02:03:50;;;;;;;1.50;0.90;;;20.50;98.20;;;;;;4984490;28;20819;-79
2021/09/10 02:06:17;;;;;;;1.57;1.00;;;20.50;98.20;;;;;;4958765;28;20490;-78
2021/09/10 02:08:44;;;;;;;1.50;0.90;;;20.50;98.20;;;;;;4972752;28;20485;-79
2021/09/10 02:11:10;;;;;;;1.53;0.90;;;20.40;98.20;;;;;;4963508;28;20532;-77
2021/09/10 02:13:37;;;;;;;1.50;0.90;;;20.40;98.20;;;;;;4973455;28;20926;-77
2021/09/10 02:16:06;;;;;;;1.50;0.97;;;20.40;98.20;;;;;;4958308;28;20466;-77
2021/09/10 02:18:33;;;;;;;1.50;1.00;;;20.40;98.20;;;;;;4971534;28;20497;-77
2021/09/10 02:20:59;;;;;;;1.50;0.90;;;20.40;98.20;;;;;;4965205;28;20462;-78
2021/09/10 02:23:26;;;;;;;1.50;0.90;;;20.40;98.20;;;;;;4983610;28;20778;-78
2021/09/10 02:25:53;;;;;;;1.50;0.90;;;20.40;98.20;;;;;;4961444;28;20465;-77
2021/09/10 02:28:20;;;;;;;1.50;0.93;;;20.40;98.20;;;;;;4985549;28;20852;-77
2021/09/10 02:30:46;;;;;;;1.50;1.00;;;20.40;98.20;;;;;;4962003;28;20493;-77
2021/09/10 02:33:15;;;;;;;1.50;0.90;;;20.30;98.20;;;;;;4970027;28;20478;-77
2021/09/10 02:35:42;;;;;;;1.53;1.00;;;20.30;98.20;;;;;;4969830;28;20949;-77
2021/09/10 02:38:09;;;;;;;1.50;0.90;;;20.40;98.20;;;;;;4972143;28;20501;-77
2021/09/10 02:40:36;;;;;;;1.50;1.00;;;20.30;98.20;;;;;;4974888;28;20890;-80
2021/09/10 02:43:03;;;;;;;1.50;0.90;;;20.30;98.20;;;;;;4965596;28;20487;-79
2021/09/10 02:45:30;;;;;;;1.50;0.90;;;20.30;98.20;;;;;;4974656;28;20480;-79
2021/09/10 02:47:57;;;;;;;1.57;0.90;;;20.30;98.20;;;;;;4978764;28;20543;-79
2021/09/10 02:50:25;;;;;;;1.60;0.90;;;20.30;98.20;;;;;;4975380;28;20492;-80
2021/09/10 02:52:52;;;;;;;1.50;0.90;;;20.30;98.20;;;;;;4977151;28;20496;-77
2021/09/10 02:55:19;;;;;;;1.50;0.90;;;20.30;98.20;;;;;;4968523;28;21002;-81
2021/09/10 02:57:46;;;;;;;1.50;0.90;;;20.30;98.20;;;;;;4978649;28;20496;-80
2021/09/10 03:00:14;;;;;;;1.50;0.90;;;20.30;98.20;;;;;;4972012;28;20481;-79
2021/09/10 03:02:41;;;;;;;1.53;1.00;;;20.30;98.20;;;;;;4963558;28;20477;-80
2021/09/10 03:05:08;;;;;;;1.50;0.90;;;20.20;98.20;;;;;;4970728;28;20471;-79
2021/09/10 03:07:37;;;;;;;1.57;1.00;;;20.20;98.20;;;;;;4962653;28;20577;-79
2021/09/10 03:10:04;;;;;;;1.50;0.90;;;20.20;98.20;;;;;;4974506;28;20501;-80
2021/09/10 03:12:31;;;;;;;1.50;0.93;;;20.10;98.20;;;;;;4965091;28;20486;-79
2021/09/10 03:14:58;;;;;;;1.50;0.90;;;20.20;98.20;;;;;;4976308;28;20461;-80
2021/09/10 03:17:25;;;;;;;1.50;0.90;;;20.10;98.20;;;;;;4961782;28;20486;-77
2021/09/10 03:19:52;;;;;;;1.50;1.00;;;20.10;98.20;;;;;;4973777;28;20508;-78
2021/09/10 03:22:18;;;;;;;1.53;1.00;;;20.10;98.20;;;;;;4974218;28;20485;-78
2021/09/10 03:24:46;;;;;;;1.50;1.00;;;20.10;98.20;;;;;;4978129;28;20855;-79
2021/09/10 03:27:14;;;;;;;1.50;0.90;;;20.10;98.20;;;;;;4959191;28;20592;-79
2021/09/10 03:29:41;;;;;;;1.50;0.90;;;20.10;98.20;;;;;;4971933;28;20571;-79
2021/09/10 03:32:08;;;;;;;1.50;1.00;;;20.10;98.20;;;;;;4958877;28;20508;-80
2021/09/10 03:34:35;;;;;;;1.50;0.90;;;20.10;98.20;;;;;;4971182;28;20464;-78
2021/09/10 03:37:01;;;;;;;1.53;0.90;;;20.10;98.20;;;;;;4958219;28;20486;-78
2021/09/10 03:39:28;;;;;;;1.50;0.90;;;20.10;98.20;;;;;;4971443;28;20486;-77
2021/09/10 03:41:56;;;;;;;1.57;1.00;;;20.10;98.20;;;;;;4971584;28;20481;-79
2021/09/10 03:44:23;;;;;;;1.50;0.90;;;20.10;98.20;;;;;;4979560;28;20462;-79
2021/09/10 03:46:50;;;;;;;1.50;0.90;;;20.10;98.20;;;;;;4958190;28;20597;-77
2021/09/10 03:49:17;;;;;;;1.53;0.90;;;20.10;98.20;;;;;;4976273;28;20493;-79
2021/09/10 03:51:44;;;;;;;1.53;0.90;;;20.10;98.20;;;;;;4970249;28;20517;-78
2021/09/10 03:54:11;;;;;;;1.50;0.90;;;20.10;98.20;;;;;;4978260;28;20470;-78
2021/09/10 03:56:37;;;;;;;1.50;0.90;;;20.10;98.20;;;;;;4965395;28;20491;-79
2021/09/10 03:59:05;;;;;;;1.50;0.90;;;20.10;98.20;;;;;;4978841;28;20482;-78
2021/09/10 04:01:32;;;;;;;1.60;1.10;;;20.00;98.20;;;;;;4967462;28;20495;-81
2021/09/10 04:03:59;;;;;;;1.50;0.90;;;20.00;98.20;;;;;;4982610;28;20543;-77
2021/09/10 04:06:26;;;;;;;1.53;0.90;;;20.00;98.20;;;;;;4961338;28;20886;-80
2021/09/10 04:08:53;;;;;;;1.50;0.90;;;20.00;98.20;;;;;;4972378;28;20485;-79
2021/09/10 04:11:20;;;;;;;1.50;0.90;;;20.00;98.20;;;;;;4964568;28;21047;-78
2021/09/10 04:13:49;;;;;;;1.50;0.90;;;20.00;98.20;;;;;;4981843;28;20557;-80
2021/09/10 04:16:17;;;;;;;1.50;0.90;;;20.10;98.20;;;;;;4967074;28;20576;-78
2021/09/10 04:18:44;;;;;;;1.53;0.90;;;20.10;98.20;;;;;;4976887;28;20486;-78
2021/09/10 04:21:11;;;;;;;1.50;1.00;;;20.10;98.20;;;;;;4960650;28;20976;-80
2021/09/10 04:23:38;;;;;;;1.50;1.00;;;20.10;98.20;;;;;;4984787;28;20457;-80
2021/09/10 04:26:05;;;;;;;1.50;1.00;;;20.10;98.20;;;;;;4965989;28;20827;-79
2021/09/10 04:28:32;;;;;;;1.50;0.90;;;20.10;98.20;;;;;;4983605;28;20490;-79
2021/09/10 04:30:59;;;;;;;1.60;1.00;;;20.10;98.20;;;;;;4963706;28;20527;-80
2021/09/10 04:33:27;;;;;;;1.53;0.90;;;20.10;98.20;;;;;;4972141;28;20458;-78
2021/09/10 04:35:53;;;;;;;1.50;1.00;;;20.10;98.20;;;;;;4960625;28;20695;-77
2021/09/10 04:38:20;;;;;;;1.50;0.90;;;20.10;98.20;;;;;;4974214;28;20485;-80
2021/09/10 04:40:47;;;;;;;1.50;1.00;;;20.10;98.20;;;;;;4965101;28;20472;-78
2021/09/10 04:43:14;;;;;;;1.50;0.90;;;20.10;98.20;;;;;;4986546;28;20492;-78
2021/09/10 04:45:41;;;;;;;1.53;1.00;;;20.10;98.20;;;;;;4968726;28;20493;-78
2021/09/10 04:48:08;;;;;;;1.50;0.90;;;20.10;98.20;;;;;;4976395;28;20504;-78
2021/09/10 04:50:36;;;;;;;1.50;0.90;;;20.10;98.20;;;;;;4972696;28;20593;-78
2021/09/10 04:53:03;;;;;;;1.50;0.90;;;20.10;98.20;;;;;;4968839;28;20509;-78
2021/09/10 04:55:30;;;;;;;1.50;0.90;;;20.10;98.20;;;;;;4963448;28;20466;-77
2021/09/10 04:57:56;;;;;;;1.50;1.00;;;20.10;98.20;;;;;;4970076;28;20541;-78
2021/09/10 05:00:23;;;;;;;1.50;1.00;;;20.00;98.20;;;;;;4974168;28;20464;-78
2021/09/10 05:02:51;;;;;;;1.50;0.90;;;20.00;98.20;;;;;;4980657;28;20480;-78
2021/09/10 05:05:19;;;;;;;1.50;1.00;;;20.00;98.20;;;;;;4969833;28;20518;-78
2021/09/10 05:07:47;;;;;;;1.50;0.93;;;19.90;98.20;;;;;;4973375;28;20583;-78
2021/09/10 05:10:14;;;;;;;1.50;0.90;;;19.90;98.20;;;;;;4973517;28;20498;-77
2021/09/10 05:12:41;;;;;;;1.50;0.90;;;19.90;98.20;;;;;;4975276;28;21010;-78
2021/09/10 05:15:08;;;;;;;1.57;0.90;;;19.80;98.20;;;;;;4974755;28;20470;-78
2021/09/10 05:17:35;;;;;;;1.53;1.00;;;19.80;98.20;;;;;;4976761;28;20853;-77
2021/09/10 05:20:03;;;;;;;1.57;1.00;;;19.80;98.20;;;;;;4973568;28;20478;-78
2021/09/10 05:22:30;;;;;;;1.50;1.00;;;19.80;98.20;;;;;;4976096;28;20496;-78
2021/09/10 05:24:58;;;;;;;1.53;1.00;;;19.80;98.20;;;;;;4976784;28;20568;-78
2021/09/10 05:27:25;;;;;;;1.50;1.00;;;19.80;98.20;;;;;;4964940;28;20665;-78
2021/09/10 05:29:51;;;;;;;1.50;0.97;;;19.80;98.20;;;;;;4974246;28;20516;-78
2021/09/10 05:32:18;;;;;;;1.50;1.00;;;19.80;98.20;;;;;;4964856;28;20540;-78
2021/09/10 05:34:45;;;;;;;1.53;1.00;;;19.80;98.20;;;;;;4970089;28;20480;-78
2021/09/10 05:37:12;;;;;;;1.50;0.90;;;19.80;98.20;;;;;;4976261;28;20499;-79
2021/09/10 05:39:39;;;;;;;1.50;0.90;;;19.80;98.20;;;;;;4979297;28;21052;-78
2021/09/10 05:42:07;;;;;;;1.57;1.00;;;19.80;98.20;;;;;;4953245;28;20565;-77
2021/09/10 05:44:34;;;;;;;1.50;1.00;;;19.80;98.20;;;;;;4968870;28;20677;-78
2021/09/10 05:47:00;;;;;;;1.50;0.93;;;19.80;98.20;;;;;;4973036;28;20481;-79
2021/09/10 05:49:27;;;;;;;1.50;0.90;;;19.80;98.20;;;;;;4971190;28;20491;-79
2021/09/10 05:51:54;;;;;;;1.53;0.93;;;19.80;98.20;;;;;;4954684;28;20533;-79
2021/09/10 05:54:21;;;;;;;1.50;0.90;;;19.80;98.20;;;;;;4971841;28;20458;-79
2021/09/10 05:56:48;;;;;;;1.50;0.90;;;19.80;98.20;;;;;;4962768;28;20489;-77
2021/09/10 05:59:16;;;;;;;1.50;1.00;;;19.90;98.20;;;;;;4974480;28;20477;-78
2021/09/10 06:01:43;;;;;;;1.50;0.90;;;19.90;98.20;;;;;;4964201;28;20490;-78
2021/09/10 06:04:09;;;;;;;1.50;0.90;;;20.00;98.20;;;;;;4974490;28;20749;-80
2021/09/10 06:06:37;;;;;;;1.53;0.90;;;20.00;98.20;;;;;;4963558;28;20477;-79
2021/09/10 06:09:04;;;;;;;1.50;0.97;;;20.10;98.20;;;;;;4974537;28;20493;-76
2021/09/10 06:11:31;;;;;;;1.53;0.90;;;20.10;98.20;;;;;;4960012;28;20481;-77
2021/09/10 06:13:59;;;;;;;1.50;0.90;;;20.10;98.20;;;;;;4968212;28;20458;-77
2021/09/10 06:16:27;;;;;;;1.50;1.00;;;20.20;98.20;;;;;;4962509;28;20525;-76
2021/09/10 06:18:54;;;;;;;1.50;0.90;;;20.30;98.20;;;;;;4975506;28;20753;-78
2021/09/10 06:21:21;;;;;;;1.50;0.90;;;20.50;98.20;;;;;;4964658;28;20481;-78
2021/09/10 06:23:48;;;;;;;1.57;1.00;;;20.60;98.20;;;;;;4983397;28;20473;-77
2021/09/10 06:26:15;;;;;;;1.50;0.90;;;20.80;98.20;;;;;;4963960;28;20496;-79
2021/09/10 06:28:42;;;;;;;1.50;0.90;;;21.00;98.20;;;;;;4983752;28;21094;-77
2021/09/10 06:31:09;;;;;;;1.53;0.90;;;21.20;98.20;;;;;;4964177;28;20492;-78
2021/09/10 06:33:37;;;;;;;1.57;0.90;;;21.30;98.20;;;;;;4972276;28;20641;-79
2021/09/10 06:36:04;;;;;;;1.50;0.90;;;21.50;98.20;;;;;;4960585;28;20561;-77
2021/09/10 06:38:31;;;;;;;1.53;1.00;;;21.60;98.20;;;;;;4983591;28;20490;-78
2021/09/10 06:40:58;;;;;;;1.53;0.90;;;21.70;98.20;;;;;;4958577;28;20466;-78
2021/09/10 06:43:24;;;;;;;1.53;0.90;;;21.90;98.20;;;;;;4972617;28;21000;-77
2021/09/10 06:45:51;;;;;;;1.53;0.90;;;22.00;98.20;;;;;;4963872;28;20512;-77
2021/09/10 06:48:18;;;;;;;1.50;0.90;;;22.10;98.20;;;;;;4973947;28;20493;-79
2021/09/10 06:50:46;;;;;;;1.50;0.90;;;22.20;98.20;;;;;;4961330;28;20466;-78
2021/09/10 06:53:13;;;;;;;1.53;0.90;;;22.20;98.20;;;;;;4960754;28;20883;-78
2021/09/10 06:55:40;;;;;;;1.53;0.90;;;22.30;98.20;;;;;;4970527;28;20461;-78
2021/09/10 06:58:07;;;;;;;1.50;0.90;;;22.50;98.20;;;;;;4974826;28;20496;-80
2021/09/10 07:00:33;;;;;;;1.60;0.90;;;22.60;98.20;;;;;;4964306;28;20458;-78
2021/09/10 07:03:00;;;;;;;1.57;0.90;;;22.60;98.20;;;;;;4959722;28;20500;-80
2021/09/10 07:05:27;;;;;;;1.53;0.90;;;22.70;98.20;;;;;;4967824;28;20495;-78
2021/09/10 07:07:55;;;;;;;1.53;0.90;;;22.70;98.20;;;;;;4962842;28;20524;-78
2021/09/10 07:10:23;;;;;;;1.57;0.90;;;22.60;98.20;;;;;;4966177;28;20461;-78
2021/09/10 07:12:51;;;;;;;1.60;0.90;;;22.60;98.20;;;;;;4970436;28;20490;-78
2021/09/10 07:15:18;;;;;;;1.50;0.90;;;22.60;98.20;;;;;;4964622;28;20611;-78
2021/09/10 07:17:44;;;;;;;1.50;1.00;;;22.60;98.20;;;;;;4954251;28;20584;-78
2021/09/10 07:20:12;;;;;;;1.60;1.07;;;22.70;98.20;;;;;;4967246;28;20462;-77
2021/09/10 07:22:39;;;;;;;1.50;0.90;;;22.70;98.20;;;;;;4969497;28;21053;-79
2021/09/10 07:25:08;;;;;;;1.50;0.90;;;22.70;98.20;;;;;;4968247;28;20466;-79
2021/09/10 07:27:35;;;;;;;1.60;1.20;;;22.80;98.20;;;;;;4961560;28;20494;-81
2021/09/10 07:30:03;;;;;;;1.50;0.90;;;22.80;98.20;;;;;;4974408;28;21146;-79
2021/09/10 07:32:29;;;;;;;1.50;0.90;;;22.90;98.20;;;;;;4980629;28;20489;-78
2021/09/10 07:34:56;;;;;;;1.50;0.90;;;22.90;98.20;;;;;;4970109;28;20469;-81
2021/09/10 07:37:27;;;;;;;1.57;0.90;;;22.90;98.20;;;;;;4951522;28;20496;-77
2021/09/10 07:39:54;;;;;;;1.50;0.90;;;22.90;98.20;;;;;;4967675;28;20490;-78
2021/09/10 07:42:22;;;;;;;1.53;0.90;;;22.90;98.20;;;;;;4970154;28;21011;-78
2021/09/10 07:44:49;;;;;;;1.50;0.90;;;22.90;98.20;;;;;;4980978;28;20493;-78
2021/09/10 07:47:17;;;;;;;1.50;0.90;;;22.90;98.20;;;;;;4957993;28;20492;-79
2021/09/10 07:49:45;;;;;;;1.50;0.90;;;22.90;98.20;;;;;;4966651;28;20493;-78
2021/09/10 07:52:11;;;;;;;1.50;0.90;;;22.80;98.20;;;;;;4960004;28;20486;-78
2021/09/10 07:54:38;;;;;;;1.50;0.90;;;22.80;98.20;;;;;;4962261;28;20475;-78
2021/09/10 07:57:05;;;;;;;2.20;1.67;;;22.80;98.20;;;;;;4967941;28;20488;-78
2021/09/10 07:59:33;;;;;;;1.53;0.90;;;22.90;98.20;;;;;;4971611;28;20487;-79
2021/09/10 08:02:00;;;;;;;1.50;0.90;;;22.90;98.20;;;;;;4957437;28;20490;-78
2021/09/10 08:04:27;;;;;;;1.97;0.90;;;22.90;98.20;;;;;;4969728;28;20469;-77
2021/09/10 08:07:07;;;;;;;1.50;0.83;;;22.90;98.20;;;;;;4970557;28;20481;-76
2021/09/10 08:09:34;;;;;;;1.50;0.90;;;22.90;98.20;;;;;;4968373;28;20485;-77
2021/09/10 08:12:00;;;;;;;1.50;0.90;;;22.90;98.20;;;;;;4951135;28;20500;-78
2021/09/10 08:14:27;;;;;;;1.50;0.90;;;22.90;98.20;;;;;;4966972;28;20554;-77
2021/09/10 08:16:55;;;;;;;1.50;0.90;;;22.90;98.20;;;;;;4963126;28;20523;-78
2021/09/10 08:19:22;;;;;;;1.50;0.90;;;22.90;98.20;;;;;;4968693;28;20923;-79
2021/09/10 08:21:49;;;;;;;1.50;0.90;;;22.90;98.20;;;;;;4942833;28;20847;-77
2021/09/10 08:24:15;;;;;;;1.50;0.90;;;22.90;98.20;;;;;;4965930;28;20958;-78
2021/09/10 08:26:42;;;;;;;1.50;0.90;;;22.90;98.20;;;;;;4958359;28;20489;-78
2021/09/10 08:29:09;;;;;;;1.57;0.90;;;22.90;98.20;;;;;;4964711;28;20896;-79
2021/09/10 08:31:36;;;;;;;1.50;0.80;;;23.00;98.20;;;;;;4956750;28;20943;-78
2021/09/10 08:34:05;;;;;;;1.50;0.90;;;23.10;98.20;;;;;;4967743;28;20473;-79
2021/09/10 08:36:32;;;;;;;1.50;0.90;;;23.20;98.20;;;;;;4952606;28;21050;-78
2021/09/10 08:38:59;;;;;;;1.50;0.90;;;23.30;98.20;;;;;;4963947;28;20506;-78
2021/09/10 08:41:28;;;;;;;1.50;0.97;;;23.40;98.20;;;;;;4957251;28;20489;-77
2021/09/10 08:43:58;;;;;;;1.50;0.90;;;23.40;98.20;;;;;;4980637;28;20638;-78
2021/09/10 08:46:25;;;;;;;1.50;0.90;;;23.40;98.20;;;;;;4956626;28;20517;-79
2021/09/10 08:48:52;;;;;;;1.50;0.90;;;23.50;98.20;;;;;;4970249;28;20489;-79
2021/09/10 08:51:20;;;;;;;1.50;0.90;;;23.70;98.20;;;;;;4969719;28;20901;-78
2021/09/10 08:53:47;;;;;;;1.50;1.00;;;23.90;98.20;;;;;;4977561;28;20525;-79
2021/09/10 08:56:14;;;;;;;1.50;0.90;;;24.00;98.20;;;;;;4954403;28;20511;-79
2021/09/10 08:58:41;;;;;;;1.57;0.90;;;24.20;98.20;;;;;;4963985;28;20988;-77
2021/09/10 09:01:08;;;;;;;1.57;0.90;;;24.40;98.20;;;;;;4958401;28;21169;-77
2021/09/10 09:03:36;;;;;;;1.50;0.90;;;24.50;98.20;;;;;;4965680;28;20501;-76
2021/09/10 09:06:03;;;;;;;1.50;0.90;;;24.50;98.20;;;;;;4952509;28;20477;-77
2021/09/10 09:08:31;;;;;;;1.50;0.90;;;24.70;98.20;;;;;;4972486;28;20784;-77
2021/09/10 09:11:01;;;;;;;1.50;0.90;;;24.70;98.20;;;;;;4950566;28;20493;-78
2021/09/10 09:13:30;;;;;;;1.50;0.90;;;24.70;98.20;;;;;;4977264;28;20944;-76
2021/09/10 09:16:17;;;;;;;1.50;0.90;;;24.60;98.20;;;;;;4956349;28;20473;-77
2021/09/10 09:18:46;;;;;;;1.53;0.90;;;24.50;98.20;;;;;;4973587;28;21236;-77
2021/09/10 09:21:13;;;;;;;1.50;0.80;;;24.30;98.20;;;;;;4954492;28;21393;-76
2021/09/10 09:23:42;;;;;;;1.50;0.90;;;24.30;98.20;;;;;;4962925;28;20528;-76
2021/09/10 09:26:17;;;;;;;1.57;0.90;;;24.30;98.20;;;;;;4956385;28;20492;-77
2021/09/10 09:28:44;;;;;;;1.50;0.90;;;24.30;98.20;;;;;;4971935;28;20485;-76
2021/09/10 09:31:12;;;;;;;1.50;0.90;;;24.40;98.20;;;;;;4956847;28;20900;-78
2021/09/10 09:33:40;;;;;;;1.50;0.90;;;24.40;98.20;;;;;;4961780;28;20872;-76
2021/09/10 09:36:10;;;;;;;4.00;1.87;;;24.50;98.20;;;;;;4960220;28;20507;-80
2021/09/10 09:38:38;;;;;;;1.50;0.90;;;24.50;98.20;;;;;;4980337;28;20501;-79
2021/09/10 09:41:08;;;;;;;1.53;0.90;;;24.50;98.20;;;;;;4964895;28;20488;-79
2021/09/10 09:43:36;;;;;;;1.50;0.90;;;24.50;98.20;;;;;;4986667;28;20503;-77
2021/09/10 09:46:07;;;;;;;1.50;0.90;;;24.50;98.20;;;;;;4959308;28;20466;-77
2021/09/10 09:48:37;;;;;;;1.60;1.00;;;24.50;98.20;;;;;;4972100;28;20563;-79
2021/09/10 09:51:04;;;;;;;1.53;0.90;;;24.40;98.20;;;;;;4966658;28;20461;-79
2021/09/10 09:53:30;;;;;;;1.50;0.90;;;24.30;98.20;;;;;;4979196;28;20957;-77
2021/09/10 09:55:59;;;;;;;1.50;0.90;;;24.30;98.20;;;;;;4943559;28;21017;-77
2021/09/10 09:58:29;;;;;;;1.50;0.90;;;24.20;98.20;;;;;;4966622;28;20485;-77
2021/09/10 10:00:56;;;;;;;1.50;0.90;;;24.10;98.20;;;;;;4952589;28;20883;-77
2021/09/10 10:03:23;;;;;;;1.50;0.90;;;24.00;98.20;;;;;;4966275;28;20460;-79
2021/09/10 10:06:05;;;;;;;1.50;0.90;;;23.90;98.20;;;;;;4964379;28;20466;-78
2021/09/10 10:08:41;;;;;;;1.50;0.90;;;23.80;98.20;;;;;;4980889;28;20561;-77
2021/09/10 10:11:11;;;;;;;1.50;0.90;;;23.70;98.20;;;;;;4962584;28;22181;-78
2021/09/10 10:13:39;;;;;;;1.50;0.90;;;23.60;98.20;;;;;;4982819;28;20486;-79
2021/09/10 10:16:06;;;;;;;1.57;0.90;;;23.50;98.20;;;;;;4964239;28;20745;-78
2021/09/10 10:18:40;;;;;;;1.50;0.90;;;23.50;98.20;;;;;;4987974;28;20485;-78
2021/09/10 10:21:08;;;;;;;1.50;0.90;;;23.40;98.20;;;;;;4957905;28;20590;-78
2021/09/10 10:24:05;;;;;;;2.13;1.63;;;23.40;98.20;;;;;;4972299;28;20500;-79
2021/09/10 10:26:36;;;;;;;1.50;0.90;;;23.30;98.20;;;;;;4954255;28;20612;-78
2021/09/10 10:29:07;;;;;;;1.50;0.90;;;23.30;98.20;;;;;;4980839;28;20538;-78
2021/09/10 10:31:57;;;;;;;1.50;0.90;;;23.30;98.20;;;;;;4977626;28;20488;-78
2021/09/10 10:34:24;;;;;;;1.53;0.90;;;23.40;98.20;;;;;;4974214;28;20469;-77
2021/09/10 10:36:51;;;;;;;1.50;0.90;;;23.50;98.20;;;;;;4965553;28;20493;-79
2021/09/10 10:39:26;;;;;;;1.50;0.90;;;23.50;98.20;;;;;;4979585;28;20943;-78
2021/09/10 10:41:56;;;;;;;1.50;0.90;;;23.70;98.20;;;;;;4969360;28;20494;-79
2021/09/10 10:44:47;;;;;;;1.50;0.90;;;23.80;98.20;;;;;;4971763;28;20940;-77
2021/09/10 10:47:15;;;;;;;1.50;0.90;;;23.90;98.20;;;;;;4970306;28;20489;-77
2021/09/10 10:49:43;;;;;;;1.57;0.90;;;24.00;98.20;;;;;;4971663;28;20617;-78
2021/09/10 10:52:36;;;;;;;1.50;0.90;;;24.10;98.20;;;;;;4967953;28;20487;-77
2021/09/10 10:55:21;;;;;;;1.50;0.90;;;24.20;98.20;;;;;;4959047;28;20458;-80
2021/09/10 10:57:48;;;;;;;1.50;0.90;;;24.30;98.20;;;;;;4975695;28;20484;-78
2021/09/10 11:00:58;;;;;;;1.50;0.90;;;24.50;98.20;;;;;;4971603;28;20855;-78
2021/09/10 11:03:48;;;;;;;1.50;0.90;;;24.60;98.20;;;;;;4953509;28;21075;-78
2021/09/10 11:06:29;;;;;;;1.50;0.90;;;24.70;98.20;;;;;;4961649;28;20489;-78
2021/09/10 11:08:56;;;;;;;1.50;0.90;;;24.80;98.20;;;;;;4967215;28;20872;-78
2021/09/10 11:11:30;;;;;;;1.50;0.90;;;24.80;98.20;;;;;;4956337;28;20497;-78
2021/09/10 11:13:57;;;;;;;1.50;0.90;;;24.90;98.20;;;;;;4968045;28;20496;-78
2021/09/10 11:16:28;;;;;;;1.50;0.90;;;25.00;98.20;;;;;;4956038;28;20866;-78
2021/09/10 11:18:57;;;;;;;1.50;0.90;;;25.10;98.20;;;;;;4974481;28;20953;-78
2021/09/10 11:21:29;;;;;;;1.50;0.90;;;25.10;98.20;;;;;;4953047;28;20783;-77
2021/09/10 11:23:56;;;;;;;1.50;0.90;;;25.20;98.20;;;;;;4963766;28;20905;-77
2021/09/10 11:26:35;;;;;;;1.50;0.90;;;25.20;98.20;;;;;;4947120;28;21112;-77
2021/09/10 11:29:09;;;;;;;1.50;0.90;;;25.30;98.20;;;;;;4964194;28;20878;-77
2021/09/10 11:31:36;;;;;;;1.50;0.90;;;25.50;98.20;;;;;;4957723;28;21024;-77
2021/09/10 11:34:04;;;;;;;1.80;1.20;;;25.80;98.20;;;;;;4967529;28;20503;-78
2021/09/10 11:36:31;;;;;;;1.50;0.80;;;26.10;98.20;;;;;;4963095;28;20889;-78
2021/09/10 11:39:06;;;;;;;1.53;0.80;;;26.30;97.60;;;;;;4975665;28;20768;-78
2021/09/10 11:41:34;;;;;;;1.50;0.90;;;26.50;96.50;;;;;;4961838;28;20492;-77
2021/09/10 11:44:09;;;;;;;1.53;0.87;;;26.70;95.30;;;;;;4975370;28;20988;-78
2021/09/10 11:46:36;;;;;;;1.53;0.80;;;26.60;94.50;;;;;;4960501;28;20492;-78
2021/09/10 11:49:04;;;;;;;1.50;0.90;;;26.50;95.30;;;;;;4967952;28;20504;-77
2021/09/10 11:51:42;;;;;;;1.50;0.90;;;26.30;96.30;;;;;;4953569;28;20484;-77
2021/09/10 11:54:11;;;;;;;1.50;0.90;;;26.10;95.20;;;;;;4961141;28;20863;-77
2021/09/10 11:56:39;;;;;;;1.50;0.90;;;25.80;96.10;;;;;;4962741;28;20534;-77
2021/09/10 11:59:25;;;;;;;1.50;0.80;;;25.80;96.60;;;;;;4966502;28;20603;-77
2021/09/10 12:01:52;;;;;;;1.50;0.90;;;25.80;96.70;;;;;;4949877;28;20940;-77
2021/09/10 12:04:29;;;;;;;1.50;0.80;;;25.90;97.80;;;;;;4963913;28;20500;-77
2021/09/10 12:06:58;;;;;;;1.50;0.87;;;26.10;96.60;;;;;;4961741;28;20491;-77
2021/09/10 12:09:27;;;;;;;1.53;0.90;;;26.30;96.00;;;;;;4967113;28;20493;-77
2021/09/10 12:12:09;;;;;;;1.50;0.87;;;26.50;95.60;;;;;;4961240;28;20898;-77
2021/09/10 12:14:41;;;;;;;1.60;1.13;;;26.80;94.80;;;;;;4962531;28;20997;-76
2021/09/10 12:17:14;;;;;;;1.50;0.87;;;26.90;93.60;;;;;;4949580;28;20493;-76
2021/09/10 12:19:54;;;;;;;1.53;0.80;;;26.90;94.00;;;;;;4964244;28;21004;-76
2021/09/10 12:22:30;;;;;;;1.50;0.87;;;26.90;94.30;;;;;;4969091;28;20945;-76
2021/09/10 12:25:19;;;;;;;1.50;0.87;;;26.90;94.20;;;;;;4966330;28;20485;-77
2021/09/10 12:27:46;;;;;;;1.50;0.90;;;26.80;94.20;;;;;;4949857;28;20654;-77
2021/09/10 12:30:15;;;;;;;1.50;0.90;;;26.80;94.20;;;;;;4961579;28;20485;-77
2021/09/10 12:32:42;;;;;;;1.50;0.90;;;26.70;94.70;;;;;;4968225;28;20484;-77
2021/09/10 12:35:11;;;;;;;1.50;0.90;;;26.60;94.40;;;;;;4964252;28;20875;-77
2021/09/10 12:37:38;;;;;;;1.50;0.90;;;26.50;95.60;;;;;;4969491;28;20498;-77
2021/09/10 12:40:06;;;;;;;1.50;0.90;;;26.30;95.80;;;;;;4958790;28;20497;-77
2021/09/10 12:42:33;;;;;;;1.50;0.90;;;26.00;97.50;;;;;;4965595;28;20485;-77
2021/09/10 12:45:00;;;;;;;1.50;0.83;;;25.70;98.20;;;;;;4966259;28;21040;-77
2021/09/10 12:47:26;;;;;;;1.80;1.13;;;25.40;98.20;;;;;;4965884;28;20484;-76
2021/09/10 12:49:53;;;;;;;1.53;0.90;;;25.10;98.20;;;;;;4964327;28;20693;-76
2021/09/10 12:52:21;;;;;;;1.50;0.90;;;24.80;98.20;;;;;;4962149;28;20485;-76
2021/09/10 12:54:48;;;;;;;1.70;1.20;;;24.60;98.20;;;;;;4971086;28;20513;-78